Fort Pillow, Tennessee
Current Conditions -  °F | °C
As of 6:53 PM on Saturday 20 Dec 2014 (Local Time) from KHKA Reporting Station
Clear Clear  
Wind Chill: 33°   Ceiling: Unl
Heat Index: 38°   Visibility: 10mi
Dew Point: 34°   Wind: 6mph
Humidity: 86%   Direction: 40°NE
Pressure: 30.27"   Gusts: NA
Location:  35.7162°N, 89.6967°W
Report Text: KHKA 210053Z AUTO 04005KT 10SM CLR 03/01 A3027 RMK AO2 SLP250 T00330011
Loading
Personal Weather Stations






























Interactive Weather Map New forecast layout! Learn more

10-Day Weather Forecast

Advertisements
Track Severe Weather on mobile